Time;durP1;ratioP1;P1;durP2;ratioP2;P2;SDS_P1;SDS_P2;PMS_P1;PMS_P2;Temp;Humidity;BMP_temperature;BMP_pressure;BME280_temperature;BME280_humidity;BME280_pressure;Samples;Min_cycle;Max_cycle;Signal;HPM_P1;HPM_P2
2024/03/04 00:00:13;;;;;;;44.05;27.80;;;;;;;8.56;88.16;100024.53;4991009;28;20058;-79
2024/03/04 00:03:00;;;;;;;44.28;27.05;;;;;;;8.52;88.13;100028.41;4995255;28;20050;-80
2024/03/04 00:05:42;;;;;;;45.33;26.67;;;;;;;8.52;88.66;100033.66;4998345;28;20078;-79
2024/03/04 00:08:17;;;;;;;44.87;27.03;;;;;;;8.52;88.54;100044.22;4998303;28;20042;-81
2024/03/04 00:10:44;;;;;;;45.67;27.73;;;;;;;8.49;88.83;100040.06;4998873;28;20070;-81
2024/03/04 00:16:05;;;;;;;47.38;29.50;;;;;;;8.51;88.76;100047.84;4995761;28;20058;-81
2024/03/04 00:18:33;;;;;;;45.90;28.73;;;;;;;8.52;88.48;100054.78;5004594;28;20223;-79
2024/03/04 00:21:08;;;;;;;48.17;27.98;;;;;;;8.54;88.98;100060.75;4997588;28;20074;-81
2024/03/04 00:23:36;;;;;;;50.78;29.42;;;;;;;8.56;88.75;100064.91;4997104;28;20472;-81
2024/03/04 00:26:05;;;;;;;48.70;30.13;;;;;;;8.52;88.89;100068.78;4996718;28;20046;-82
2024/03/04 00:28:32;;;;;;;52.38;31.13;;;;;;;8.47;88.92;100081.53;4998392;28;20053;-82
2024/03/04 00:30:59;;;;;;;56.05;32.25;;;;;;;8.41;89.78;100082.09;4998663;28;20055;-81
2024/03/04 00:33:26;;;;;;;53.15;31.17;;;;;;;8.48;89.31;100090.28;4998739;28;20062;-81
2024/03/04 00:36:04;;;;;;;57.00;32.15;;;;;;;8.45;89.18;100094.03;5000244;28;20046;-82
2024/03/04 00:38:43;;;;;;;54.17;32.15;;;;;;;8.35;90.33;100098.41;5000448;28;20076;-79
2024/03/04 00:41:09;;;;;;;58.22;32.05;;;;;;;8.33;89.97;100108.25;4998933;28;20596;-79
2024/03/04 00:43:36;;;;;;;55.50;31.92;;;;;;;8.31;90.75;100105.75;5004517;28;20138;-80
2024/03/04 00:46:03;;;;;;;58.42;33.35;;;;;;;8.25;90.46;100111.53;5002452;28;20081;-79
2024/03/04 00:48:30;;;;;;;58.08;31.98;;;;;;;8.23;90.69;100113.47;4998359;28;20126;-80
2024/03/04 00:50:57;;;;;;;58.40;32.22;;;;;;;8.22;91.34;100116.25;4996282;28;20089;-82
2024/03/04 00:53:29;;;;;;;59.38;32.85;;;;;;;8.23;91.55;100105.56;4995711;28;20409;-81
2024/03/04 00:55:56;;;;;;;60.10;33.47;;;;;;;8.24;91.38;100123.06;4995208;28;20086;-81
2024/03/04 00:58:23;;;;;;;61.65;33.03;;;;;;;8.19;91.62;100122.63;4994853;28;20050;-81
2024/03/04 01:00:50;;;;;;;62.22;32.65;;;;;;;8.22;91.01;100119.72;4996052;28;20060;-81
2024/03/04 01:03:20;;;;;;;59.33;32.42;;;;;;;8.22;91.33;100125.00;4997018;28;20046;-79
2024/03/04 01:05:48;;;;;;;60.28;32.72;;;;;;;8.26;91.04;100133.47;4996772;28;20121;-78
2024/03/04 01:08:18;;;;;;;63.75;33.75;;;;;;;8.26;91.64;100128.19;4997340;28;20088;-79
2024/03/04 01:10:46;;;;;;;63.28;33.88;;;;;;;8.16;91.46;100133.41;4996446;28;20060;-80
2024/03/04 01:13:16;;;;;;;60.80;32.33;;;;;;;8.21;91.72;100130.38;4997523;28;20461;-80
2024/03/04 01:15:47;;;;;;;62.95;33.72;;;;;;;8.16;91.34;100128.13;4999471;28;20065;-81
2024/03/04 01:18:17;;;;;;;70.45;33.30;;;;;;;8.16;91.84;100137.84;5008707;28;20113;-81
2024/03/04 01:20:45;;;;;;;62.47;33.28;;;;;;;8.14;91.60;100134.53;4998647;28;20472;-81
2024/03/04 01:23:12;;;;;;;64.78;35.55;;;;;;;8.11;92.09;100144.34;4997693;28;20133;-80
2024/03/04 01:25:38;;;;;;;63.72;33.33;;;;;;;8.14;91.64;100145.06;5001227;28;20432;-81
2024/03/04 01:28:06;;;;;;;61.88;33.67;;;;;;;8.09;92.18;100148.94;4997885;28;20050;-80
2024/03/04 01:30:36;;;;;;;62.30;33.35;;;;;;;8.10;93.21;100147.97;4998065;28;20081;-81
2024/03/04 01:33:12;;;;;;;59.65;34.38;;;;;;;8.11;92.33;100149.63;4998850;28;20042;-81
2024/03/04 01:35:40;;;;;;;64.47;32.95;;;;;;;8.11;92.14;100154.88;4981802;28;20085;-80
2024/03/04 01:38:07;;;;;;;67.05;32.95;;;;;;;8.09;92.16;100159.47;4995822;28;20565;-80
2024/03/04 01:40:35;;;;;;;66.97;34.67;;;;;;;8.11;92.40;100159.34;4997345;28;20054;-80
2024/03/04 01:43:02;;;;;;;70.40;35.65;;;;;;;8.14;92.36;100159.09;4996176;28;20133;-79
2024/03/04 01:45:31;;;;;;;70.10;35.78;;;;;;;8.07;92.70;100166.66;4997260;28;20406;-81
2024/03/04 01:48:06;;;;;;;69.53;36.35;;;;;;;8.08;92.48;100162.22;4996312;28;20046;-80
2024/03/04 01:50:36;;;;;;;79.60;38.17;;;;;;;8.11;92.42;100169.88;4997468;28;20133;-80
2024/03/04 01:53:06;;;;;;;68.05;36.85;;;;;;;8.15;92.60;100175.72;4995322;28;20046;-80
2024/03/04 01:55:37;;;;;;;78.78;40.92;;;;;;;8.14;91.97;100176.69;4995390;28;20053;-81
2024/03/04 01:58:05;;;;;;;77.85;42.03;;;;;;;8.17;91.39;100165.88;4992210;28;20050;-80
2024/03/04 02:00:39;;;;;;;84.28;44.10;;;;;;;8.08;91.91;100170.97;4996740;28;20510;-80
2024/03/04 02:03:07;;;;;;;81.28;42.38;;;;;;;8.12;91.31;100179.44;4998392;28;20129;-79
2024/03/04 02:05:34;;;;;;;82.22;44.45;;;;;;;8.10;90.87;100181.38;5005033;28;20046;-84
2024/03/04 02:08:04;;;;;;;83.93;42.65;;;;;;;8.11;91.03;100181.25;5019487;28;20088;-81
2024/03/04 02:10:30;;;;;;;81.43;43.40;;;;;;;8.13;91.25;100185.56;5006173;28;20070;-82
2024/03/04 02:12:57;;;;;;;79.10;43.28;;;;;;;8.11;90.85;100189.16;4997905;28;20150;-80
2024/03/04 02:15:26;;;;;;;75.03;41.72;;;;;;;8.13;91.22;100190.84;4996802;28;20102;-81
2024/03/04 02:17:54;;;;;;;75.20;42.70;;;;;;;8.19;90.07;100190.31;5000805;28;20046;-81
2024/03/04 02:20:24;;;;;;;79.63;42.15;;;;;;;8.17;90.42;100192.22;5000534;28;20092;-83
2024/03/04 02:22:54;;;;;;;80.07;42.85;;;;;;;8.21;89.76;100194.47;5001377;28;20132;-81
2024/03/04 02:25:22;;;;;;;77.50;41.97;;;;;;;8.21;89.97;100198.91;5013869;28;20082;-81
2024/03/04 02:27:49;;;;;;;69.95;40.47;;;;;;;8.16;90.58;100198.47;5001471;28;20124;-81
2024/03/04 02:30:16;;;;;;;74.97;42.45;;;;;;;8.14;90.37;100200.41;5000427;28;20058;-81
2024/03/04 02:32:44;;;;;;;75.25;41.33;;;;;;;8.10;89.35;100207.75;5000205;28;20050;-80
2024/03/04 02:35:10;;;;;;;76.93;41.10;;;;;;;8.08;89.88;100210.50;5000749;28;20057;-81
2024/03/04 02:37:38;;;;;;;66.20;37.92;;;;;;;8.10;89.40;100211.22;4999832;28;20066;-80
2024/03/04 02:40:07;;;;;;;63.40;38.22;;;;;;;8.16;89.22;100203.75;5003052;28;20477;-80
2024/03/04 02:42:34;;;;;;;64.95;36.15;;;;;;;8.13;88.94;100206.66;4999786;28;20137;-80
2024/03/04 02:45:01;;;;;;;57.05;34.47;;;;;;;8.00;89.20;100215.59;4999456;28;20050;-80
2024/03/04 02:47:27;;;;;;;57.95;34.33;;;;;;;8.05;88.65;100220.47;5002596;28;20137;-79
2024/03/04 02:49:54;;;;;;;52.95;32.63;;;;;;;8.06;88.28;100216.88;5002507;28;20077;-80
2024/03/04 02:52:21;;;;;;;46.85;30.13;;;;;;;8.03;88.43;100223.22;4999756;28;20133;-82
2024/03/04 02:54:47;;;;;;;49.47;31.40;;;;;;;8.05;87.63;100229.22;4999597;28;20050;-81
2024/03/04 02:57:17;;;;;;;48.03;30.70;;;;;;;8.05;88.03;100238.91;4999722;28;20537;-80
2024/03/04 02:59:46;;;;;;;52.53;31.83;;;;;;;8.07;87.66;100236.97;4999439;28;20086;-79
2024/03/04 03:02:13;;;;;;;48.35;31.08;;;;;;;8.08;87.60;100247.41;5000714;28;20129;-80
2024/03/04 03:04:39;;;;;;;48.38;31.00;;;;;;;8.08;86.99;100241.28;4999891;28;20054;-82
2024/03/04 03:07:06;;;;;;;50.22;30.88;;;;;;;8.13;86.97;100248.84;5000135;28;20058;-81
2024/03/04 03:09:33;;;;;;;48.17;31.85;;;;;;;8.09;87.51;100250.88;5000231;28;20068;-81
2024/03/04 03:12:00;;;;;;;49.25;32.72;;;;;;;8.11;87.30;100257.69;4999358;28;20472;-81
2024/03/04 03:14:28;;;;;;;52.10;33.38;;;;;;;8.09;86.92;100264.88;4998582;28;20058;-80
2024/03/04 03:16:55;;;;;;;55.45;33.95;;;;;;;8.14;87.54;100272.41;5000802;28;20046;-81
2024/03/04 03:19:23;;;;;;;55.20;33.85;;;;;;;8.13;87.65;100275.19;4998056;28;20085;-80
2024/03/04 03:21:49;;;;;;;57.28;34.90;;;;;;;8.11;87.99;100273.50;4998151;28;20101;-80
2024/03/04 03:24:16;;;;;;;61.33;35.35;;;;;;;8.11;88.20;100275.28;4998160;28;20295;-80
2024/03/04 03:26:43;;;;;;;69.55;36.83;;;;;;;8.03;88.86;100273.28;4997572;28;20163;-79
2024/03/04 03:29:10;;;;;;;64.65;35.15;;;;;;;8.03;88.89;100278.56;4998479;28;20089;-80
2024/03/04 03:31:38;;;;;;;61.40;35.25;;;;;;;8.04;89.24;100285.53;4999613;28;20054;-80
2024/03/04 03:34:05;;;;;;;57.38;35.92;;;;;;;8.05;88.22;100283.72;4999109;28;20128;-81
2024/03/04 03:36:31;;;;;;;53.03;34.72;;;;;;;8.14;88.11;100292.66;5002897;28;20081;-79
2024/03/04 03:39:00;;;;;;;60.42;35.50;;;;;;;8.15;88.18;100291.69;5000021;28;20158;-79
2024/03/04 03:41:27;;;;;;;58.78;35.60;;;;;;;8.08;87.81;100293.97;4999612;28;20058;-81
2024/03/04 03:43:54;;;;;;;52.80;34.50;;;;;;;8.03;88.44;100299.63;4999696;28;20110;-80
2024/03/04 03:46:20;;;;;;;51.70;33.92;;;;;;;7.95;88.32;100304.72;4999819;28;20106;-80
2024/03/04 03:48:51;;;;;;;55.13;33.83;;;;;;;8.02;88.93;100300.59;5002614;28;20518;-80
2024/03/04 03:51:17;;;;;;;60.65;34.15;;;;;;;8.03;89.09;100298.81;5004762;28;20581;-80
2024/03/04 03:53:44;;;;;;;58.15;32.28;;;;;;;7.90;89.58;100298.97;5001182;28;20133;-79
2024/03/04 03:56:14;;;;;;;57.45;33.20;;;;;;;7.85;89.82;100309.88;5000765;28;20074;-83
2024/03/04 03:58:41;;;;;;;55.63;32.30;;;;;;;7.83;89.59;100317.09;5000641;28;20125;-81
2024/03/04 04:01:07;;;;;;;55.42;31.98;;;;;;;7.81;90.22;100323.41;5000741;28;20046;-80
2024/03/04 04:03:35;;;;;;;60.58;34.05;;;;;;;7.86;89.74;100318.66;4999850;28;20063;-81
2024/03/04 04:06:05;;;;;;;58.88;34.15;;;;;;;7.87;89.53;100322.13;5003447;28;20493;-82
2024/03/04 04:08:34;;;;;;;56.92;34.25;;;;;;;7.84;89.58;100324.03;4999896;28;20082;-80
2024/03/04 04:11:01;;;;;;;59.25;34.88;;;;;;;7.79;89.90;100326.19;5000120;28;20061;-81
2024/03/04 04:13:30;;;;;;;66.63;33.45;;;;;;;7.83;89.79;100338.16;5001179;28;20049;-80
2024/03/04 04:15:57;;;;;;;59.30;34.55;;;;;;;7.87;89.54;100338.75;5001199;28;20058;-82
2024/03/04 04:18:24;;;;;;;58.08;34.33;;;;;;;7.83;90.06;100342.59;5000421;28;20078;-82
2024/03/04 04:20:51;;;;;;;58.17;32.75;;;;;;;7.87;89.58;100337.91;4999483;28;20110;-81
2024/03/04 04:23:19;;;;;;;58.83;32.70;;;;;;;7.90;89.01;100338.47;5003887;28;20137;-81
2024/03/04 04:25:46;;;;;;;53.50;32.40;;;;;;;7.89;89.70;100347.34;5001548;28;20060;-79
2024/03/04 04:28:12;;;;;;;53.83;32.28;;;;;;;7.85;89.10;100343.28;5002813;28;20054;-79
2024/03/04 04:30:39;;;;;;;55.20;33.45;;;;;;;7.81;89.55;100345.38;4998914;28;20124;-80
2024/03/04 04:33:08;;;;;;;59.42;34.15;;;;;;;7.88;89.69;100348.31;4998679;28;20057;-80
2024/03/04 04:35:35;;;;;;;61.78;35.05;;;;;;;7.83;89.46;100343.44;4998752;28;20053;-80
2024/03/04 04:38:02;;;;;;;58.63;34.25;;;;;;;7.83;89.37;100353.97;4998752;28;20058;-80
2024/03/04 04:40:31;;;;;;;57.80;35.10;;;;;;;7.86;89.70;100350.25;4999083;28;20082;-78
2024/03/04 04:42:58;;;;;;;62.55;34.75;;;;;;;7.80;89.16;100353.38;5000753;28;20389;-79
2024/03/04 04:45:32;;;;;;;61.08;35.10;;;;;;;7.86;88.85;100355.53;5001209;28;20062;-78
2024/03/04 04:50:33;;;;;;;58.92;34.25;;;;;;;7.78;89.60;100350.88;5016850;28;20041;-80
2024/03/04 04:53:00;;;;;;;53.45;33.35;;;;;;;7.76;89.14;100344.03;4999886;28;20053;-79
2024/03/04 04:55:26;;;;;;;59.25;32.97;;;;;;;7.84;89.47;100365.34;5015661;28;20077;-79
2024/03/04 04:58:03;;;;;;;57.60;33.85;;;;;;;7.75;89.35;100368.72;5010974;28;20138;-79
2024/03/04 05:00:30;;;;;;;59.25;34.83;;;;;;;7.72;89.25;100377.69;5011323;28;20105;-83
2024/03/04 05:05:24;;;;;;;52.92;33.47;;;;;;;7.79;88.94;100372.78;4998257;28;20050;-82
2024/03/04 05:07:51;;;;;;;55.33;31.83;;;;;;;7.79;89.53;100378.88;5014831;28;20065;-80
2024/03/04 05:10:25;;;;;;;56.33;32.47;;;;;;;7.82;88.79;100376.00;5013505;28;20057;-81
2024/03/04 05:13:09;;;;;;;57.15;32.97;;;;;;;7.78;89.33;100371.09;4981829;28;20178;-83
2024/03/04 05:16:06;;;;;;;55.22;32.40;;;;;;;7.78;88.82;100376.38;4963451;29;20051;-84
2024/03/04 05:18:40;;;;;;;57.60;33.92;;;;;;;7.74;88.97;100374.94;4974564;28;20061;-83
2024/03/04 05:24:21;;;;;;;52.38;31.88;;;;;;;7.77;89.21;100380.81;4947455;28;20467;-84
2024/03/04 05:26:49;;;;;;;53.60;32.08;;;;;;;7.70;89.31;100384.03;4957556;28;20085;-83
2024/03/04 05:29:23;;;;;;;50.47;31.30;;;;;;;7.76;89.08;100388.81;5002675;28;20065;-82
2024/03/04 05:31:55;;;;;;;46.00;30.65;;;;;;;7.71;89.32;100383.91;4977289;28;20047;-83
2024/03/04 05:34:25;;;;;;;44.50;28.83;;;;;;;7.67;89.38;100379.00;4963397;28;20059;-83
2024/03/04 05:36:52;;;;;;;51.13;30.83;;;;;;;7.73;88.83;100383.81;4975677;28;20073;-84
2024/03/04 05:39:31;;;;;;;48.28;30.55;;;;;;;7.71;89.04;100377.81;4986433;28;20073;-84
2024/03/04 05:45:36;;;;;;;40.38;22.73;;;;;;;7.66;89.82;100378.19;4944316;28;20059;-86
2024/03/04 05:48:06;;;;;;;38.33;22.88;;;;;;;7.61;90.09;100380.34;4980784;28;20181;-84
2024/03/04 05:50:35;;;;;;;35.00;20.88;;;;;;;7.61;89.50;100390.88;4976495;28;20413;-84
2024/03/04 05:53:02;;;;;;;33.63;19.42;;;;;;;7.66;89.56;100383.44;4995403;28;20059;-85
2024/03/04 05:55:29;;;;;;;28.40;19.85;;;;;;;7.64;88.68;100376.66;4985688;28;20051;-82
2024/03/04 06:17:58;;;;;;;23.67;12.88;;;;;;;7.55;88.51;100423.81;4931432;29;20084;-82
2024/03/04 06:20:54;;;;;;;26.60;14.20;;;;;;;7.58;88.47;100428.81;4945473;28;20082;-85
2024/03/04 06:39:27;;;;;;;19.85;11.23;;;;;;;7.50;88.33;100461.97;4909791;29;20068;-83
2024/03/04 06:42:13;;;;;;;19.00;11.50;;;;;;;7.54;88.11;100458.13;4983291;28;20059;-86
2024/03/04 06:44:48;;;;;;;18.63;11.80;;;;;;;7.52;88.04;100463.53;4976926;28;20110;-87
2024/03/04 06:47:19;;;;;;;19.42;11.73;;;;;;;7.57;87.55;100468.44;4985322;28;20062;-86
2024/03/04 06:50:01;;;;;;;18.42;11.32;;;;;;;7.65;87.18;100473.13;4988757;28;20041;-85
2024/03/04 07:40:26;;;;;;;17.50;11.43;;;;;;;7.81;86.71;100486.75;4989667;28;20521;-83
2024/03/04 07:42:56;;;;;;;18.85;12.05;;;;;;;7.79;86.56;100483.41;5008763;23;20042;-78
2024/03/04 07:45:23;;;;;;;18.63;11.85;;;;;;;7.92;86.00;100489.41;4993456;28;20058;-78
2024/03/04 07:47:51;;;;;;;20.70;11.27;;;;;;;7.99;85.73;100489.75;4991278;28;20434;-79
2024/03/04 07:50:17;;;;;;;20.42;11.95;;;;;;;8.02;85.62;100494.78;4982118;28;20066;-79
2024/03/04 07:52:47;;;;;;;18.50;11.77;;;;;;;7.94;86.16;100503.28;4988426;28;20077;-78
2024/03/04 07:55:14;;;;;;;17.75;10.65;;;;;;;7.99;85.94;100493.25;4991967;28;20219;-79
2024/03/04 07:57:42;;;;;;;16.13;10.88;;;;;;;7.91;85.19;100514.09;4990643;28;20124;-77
2024/03/04 08:00:10;;;;;;;16.60;11.35;;;;;;;7.81;85.69;100513.09;4991002;28;20055;-79
2024/03/04 08:02:37;;;;;;;23.83;12.15;;;;;;;7.83;85.56;100522.56;4994589;28;20093;-78
2024/03/04 08:05:05;;;;;;;21.75;11.35;;;;;;;7.87;85.88;100510.00;4995826;28;20058;-80
2024/03/04 08:07:32;;;;;;;19.73;11.80;;;;;;;7.83;85.81;100505.94;4995565;28;20051;-78
2024/03/04 08:10:01;;;;;;;19.88;12.02;;;;;;;7.77;86.10;100522.22;4983248;28;20042;-77
2024/03/04 08:12:28;;;;;;;18.50;11.27;;;;;;;7.89;85.47;100508.06;4992509;28;20061;-78
2024/03/04 08:14:54;;;;;;;18.85;12.45;;;;;;;7.87;84.82;100522.34;4990628;28;20138;-77
2024/03/04 08:17:21;;;;;;;19.02;11.52;;;;;;;7.86;85.43;100518.88;4992153;28;20137;-78
2024/03/04 08:19:48;;;;;;;19.17;13.05;;;;;;;7.92;85.14;100523.66;4993718;28;20054;-79
2024/03/04 08:22:14;;;;;;;18.55;11.45;;;;;;;7.89;84.84;100521.25;4988485;28;20105;-78
2024/03/04 08:24:42;;;;;;;15.77;11.00;;;;;;;7.99;84.47;100526.63;4986350;28;20054;-78
2024/03/04 08:27:10;;;;;;;18.80;11.23;;;;;;;8.08;84.24;100526.78;4991559;28;20054;-77
2024/03/04 08:29:36;;;;;;;16.05;11.35;;;;;;;8.08;83.51;100532.03;4986184;28;20482;-78
2024/03/04 08:32:04;;;;;;;18.92;13.23;;;;;;;7.99;84.17;100532.78;4992184;28;20050;-76
2024/03/04 08:34:31;;;;;;;18.77;12.65;;;;;;;8.09;83.82;100531.09;4992932;28;20509;-76
2024/03/04 08:36:58;;;;;;;19.13;11.95;;;;;;;8.08;83.99;100533.81;4995175;28;20468;-78
2024/03/04 08:39:24;;;;;;;20.58;12.27;;;;;;;8.15;83.57;100539.47;4991138;28;20081;-78
2024/03/04 08:41:51;;;;;;;18.30;12.20;;;;;;;8.24;83.86;100536.94;4990915;28;20043;-78
2024/03/04 08:44:30;;;;;;;17.08;11.50;;;;;;;8.27;83.08;100531.44;5002390;28;20106;-77
2024/03/04 08:46:58;;;;;;;16.27;10.60;;;;;;;8.29;82.27;100533.94;5006414;28;20061;-77
2024/03/04 08:49:25;;;;;;;15.75;11.02;;;;;;;8.36;81.85;100535.13;5004037;28;20066;-78
2024/03/04 08:51:52;;;;;;;16.23;11.35;;;;;;;8.46;81.97;100541.38;5003893;28;20073;-76
2024/03/04 08:54:18;;;;;;;17.05;10.23;;;;;;;8.51;81.41;100533.91;5007191;28;20046;-76
2024/03/04 08:56:45;;;;;;;19.23;10.48;;;;;;;8.54;81.49;100535.50;5003047;28;20129;-77
2024/03/04 08:59:12;;;;;;;17.90;11.55;;;;;;;8.52;80.56;100526.84;5007247;28;20054;-77
2024/03/04 09:01:41;;;;;;;14.95;10.32;;;;;;;8.51;81.08;100526.00;5007047;28;20154;-78
2024/03/04 09:04:08;;;;;;;18.30;10.88;;;;;;;8.56;81.55;100515.94;4992792;28;20063;-78
2024/03/04 09:06:35;;;;;;;14.73;10.48;;;;;;;8.65;80.40;100519.63;4995367;28;20085;-78
2024/03/04 09:09:01;;;;;;;13.35;11.05;;;;;;;8.88;80.18;100517.72;4988789;28;20062;-78
2024/03/04 09:11:28;;;;;;;15.63;11.45;;;;;;;8.98;78.64;100523.97;4989431;28;20042;-78
2024/03/04 09:13:55;;;;;;;13.75;10.77;;;;;;;9.13;77.85;100526.28;4991874;28;20074;-78
2024/03/04 09:16:22;;;;;;;14.43;10.30;;;;;;;9.20;76.72;100525.66;4997816;28;20046;-78
2024/03/04 09:18:50;;;;;;;15.80;11.23;;;;;;;9.17;77.63;100520.63;4997369;28;20054;-78
2024/03/04 09:21:17;;;;;;;14.70;10.85;;;;;;;9.03;78.06;100534.13;4996926;28;20046;-78
2024/03/04 09:23:45;;;;;;;16.70;10.75;;;;;;;8.89;78.85;100535.28;4991691;28;20111;-78
2024/03/04 09:26:13;;;;;;;14.63;10.77;;;;;;;8.85;78.67;100537.31;4997654;28;20046;-79
2024/03/04 09:28:48;;;;;;;16.65;10.48;;;;;;;8.83;78.91;100541.88;4997315;28;20081;-77
2024/03/04 09:31:15;;;;;;;20.52;12.02;;;;;;;9.10;78.82;100541.41;4997049;28;20144;-77
2024/03/04 09:33:52;;;;;;;16.17;10.98;;;;;;;9.01;78.54;100542.16;4998104;28;20136;-78
2024/03/04 09:36:22;;;;;;;15.18;10.65;;;;;;;8.80;78.90;100543.94;4997633;28;20046;-77
2024/03/04 09:38:49;;;;;;;15.60;11.45;;;;;;;8.71;78.52;100547.31;4996988;28;20543;-77
2024/03/04 09:41:18;;;;;;;15.40;10.60;;;;;;;8.76;79.13;100550.44;4998202;28;20069;-78
2024/03/04 09:43:46;;;;;;;15.30;10.82;;;;;;;8.86;78.17;100552.19;4995575;28;20141;-77
2024/03/04 09:46:15;;;;;;;16.58;11.40;;;;;;;8.86;78.07;100553.97;4998626;28;20050;-77
2024/03/04 09:48:51;;;;;;;16.15;11.75;;;;;;;8.83;77.97;100559.50;4997529;28;20415;-77
2024/03/04 09:51:21;;;;;;;13.93;10.18;;;;;;;8.73;78.27;100563.84;4994865;28;20173;-78
2024/03/04 09:53:51;;;;;;;15.15;10.65;;;;;;;8.80;78.95;100565.03;4987336;28;20046;-78
2024/03/04 09:56:18;;;;;;;15.95;11.13;;;;;;;8.81;78.58;100566.72;4991416;28;20055;-79
2024/03/04 09:58:46;;;;;;;14.57;9.88;;;;;;;8.66;78.79;100567.94;4993009;28;20054;-78
2024/03/04 10:01:13;;;;;;;14.70;9.90;;;;;;;8.70;78.40;100579.91;4998462;28;20073;-78
2024/03/04 10:06:22;;;;;;;14.40;10.07;;;;;;;8.71;78.81;100571.06;4996333;28;20521;-78
2024/03/04 10:08:48;;;;;;;14.18;10.25;;;;;;;8.79;78.74;100573.91;4995941;28;20277;-77
2024/03/04 10:11:15;;;;;;;13.85;9.68;;;;;;;8.85;78.32;100566.34;4985271;28;20110;-77
2024/03/04 10:13:43;;;;;;;15.70;9.65;;;;;;;8.75;78.02;100583.03;4994190;28;20416;-78
2024/03/04 10:16:14;;;;;;;14.75;9.30;;;;;;;8.84;78.34;100574.41;4997542;28;20425;-79
2024/03/04 10:18:40;;;;;;;15.32;10.48;;;;;;;8.69;78.27;100586.16;4994814;28;20050;-77
2024/03/04 10:21:07;;;;;;;16.52;10.13;;;;;;;8.70;78.51;100586.03;5002469;28;20069;-77
2024/03/04 10:23:45;;;;;;;17.17;11.43;;;;;;;8.43;80.17;100589.06;4994521;28;20108;-77
2024/03/04 10:26:11;;;;;;;18.65;13.18;;;;;;;8.45;80.30;100592.44;4997319;28;20092;-77
2024/03/04 10:28:40;;;;;;;19.45;14.25;;;;;;;8.25;81.28;100587.84;4994136;28;20105;-76
2024/03/04 10:31:13;;;;;;;23.60;13.52;;;;;;;8.34;81.11;100587.13;5001576;28;20078;-77
2024/03/04 10:33:40;;;;;;;;;;;;;;;8.33;80.79;100588.09;4989909;28;20137;-78
2024/03/04 10:36:15;;;;;;;16.27;12.20;;;;;;;8.34;80.93;100595.03;4987279;28;19977;-76
2024/03/04 10:38:46;;;;;;;18.50;12.70;;;;;;;8.38;80.77;100585.97;4993314;28;20050;-77
2024/03/04 10:41:17;;;;;;;21.00;12.25;;;;;;;8.33;81.13;100593.38;4995431;28;20410;-77
2024/03/04 10:43:44;;;;;;;18.83;12.00;;;;;;;8.34;80.53;100595.03;4996205;28;20058;-79
2024/03/04 10:46:11;;;;;;;16.83;12.57;;;;;;;8.38;80.17;100606.22;4982477;28;20370;-78
2024/03/04 10:48:38;;;;;;;15.63;11.65;;;;;;;8.39;79.90;100598.19;4983520;28;20109;-78
2024/03/04 10:51:05;;;;;;;15.80;11.30;;;;;;;8.41;80.28;100591.00;4990405;28;20070;-78
2024/03/04 10:53:32;;;;;;;18.83;12.18;;;;;;;8.50;79.02;100598.19;4980879;28;20166;-78
2024/03/04 10:56:05;;;;;;;18.10;10.70;;;;;;;8.45;78.75;100589.81;4986355;28;20504;-80
2024/03/04 10:58:32;;;;;;;;;;;;;;;8.42;79.21;100599.75;4984237;28;20147;-80
2024/03/04 11:01:03;;;;;;;18.55;12.50;;;;;;;8.48;79.27;100597.50;4984045;28;19962;-79
2024/03/04 11:03:31;;;;;;;15.10;11.60;;;;;;;8.45;79.72;100602.16;4990665;28;20046;-78
2024/03/04 11:06:01;;;;;;;17.58;12.63;;;;;;;8.46;80.28;100599.38;4987015;28;20069;-79
2024/03/04 11:08:35;;;;;;;21.75;13.57;;;;;;;8.46;79.97;100593.28;4989802;28;20046;-79
2024/03/04 11:11:07;;;;;;;19.83;13.43;;;;;;;8.37;79.85;100605.38;4993774;28;20082;-78
2024/03/04 11:13:47;;;;;;;19.25;12.07;;;;;;;8.33;80.20;100606.56;4989128;28;20057;-79
2024/03/04 11:16:20;;;;;;;16.20;11.27;;;;;;;8.43;79.48;100604.91;4987875;28;20433;-79
2024/03/04 11:18:59;;;;;;;15.00;10.50;;;;;;;8.39;79.33;100606.09;4984412;28;20050;-79
2024/03/04 11:21:27;;;;;;;14.50;10.30;;;;;;;8.51;78.50;100610.41;4981341;28;20082;-79
2024/03/04 11:23:55;;;;;;;18.55;9.95;;;;;;;8.43;79.50;100607.53;4985637;28;20493;-78
2024/03/04 11:26:24;;;;;;;17.80;10.48;;;;;;;8.58;79.05;100608.13;4990723;28;20114;-78
2024/03/04 11:28:52;;;;;;;16.05;10.00;;;;;;;8.61;78.16;100603.44;4982539;28;20054;-77
2024/03/04 11:31:26;;;;;;;14.48;9.65;;;;;;;8.67;77.96;100612.69;4994606;28;20101;-78
2024/03/04 11:34:01;;;;;;;14.15;7.93;;;;;;;8.62;78.20;100622.78;4987014;28;20046;-79
2024/03/04 11:36:28;;;;;;;10.07;6.70;;;;;;;8.64;77.30;100615.56;4991612;28;20130;-79
2024/03/04 11:38:56;;;;;;;10.90;6.95;;;;;;;8.63;77.01;100615.69;4989455;28;20123;-79
2024/03/04 11:41:49;;;;;;;10.95;7.50;;;;;;;8.77;76.62;100625.97;4985840;28;20077;-79
2024/03/04 11:44:20;;;;;;;9.30;6.15;;;;;;;8.84;76.25;100617.44;4986831;28;20156;-79
2024/03/04 11:46:47;;;;;;;9.65;6.40;;;;;;;8.83;76.20;100622.84;4988487;28;20085;-78
2024/03/04 11:49:24;;;;;;;11.27;6.85;;;;;;;8.78;75.43;100619.72;4986132;28;20057;-78
2024/03/04 11:52:14;;;;;;;11.40;6.68;;;;;;;8.71;75.54;100614.13;4987840;28;20077;-78
2024/03/04 11:54:45;;;;;;;8.95;6.70;;;;;;;8.72;75.68;100620.22;4983984;28;20100;-78
2024/03/04 11:57:15;;;;;;;11.88;7.10;;;;;;;8.80;75.69;100618.66;4991225;28;20125;-78
2024/03/04 11:59:56;;;;;;;11.23;6.63;;;;;;;8.82;76.05;100622.00;4986006;28;20141;-78
2024/03/04 12:02:23;;;;;;;12.05;7.05;;;;;;;8.92;75.37;100614.16;4979183;28;20086;-78
2024/03/04 12:04:49;;;;;;;12.45;7.25;;;;;;;8.89;75.81;100616.25;4979894;28;20137;-78
2024/03/04 12:07:17;;;;;;;10.93;7.65;;;;;;;9.00;75.30;100624.94;4982495;28;20133;-78
2024/03/04 12:09:43;;;;;;;10.95;7.05;;;;;;;9.00;75.69;100619.69;4981112;28;20142;-78
2024/03/04 12:12:13;;;;;;;12.32;7.50;;;;;;;8.98;75.31;100611.06;4979409;28;20157;-78
2024/03/04 12:14:42;;;;;;;11.63;7.18;;;;;;;8.95;75.14;100624.50;4983715;28;20133;-78
2024/03/04 12:17:11;;;;;;;11.38;7.65;;;;;;;9.04;75.58;100622.91;4979754;28;20081;-78
2024/03/04 12:19:38;;;;;;;13.20;8.05;;;;;;;9.19;74.76;100621.66;4983886;28;20132;-78
2024/03/04 12:22:05;;;;;;;14.88;7.93;;;;;;;9.30;74.04;100616.34;4985605;28;20548;-78
2024/03/04 12:24:31;;;;;;;13.30;7.82;;;;;;;9.59;72.84;100616.56;4986494;28;20504;-79
2024/03/04 12:26:58;;;;;;;13.10;8.20;;;;;;;9.52;72.99;100619.84;4980693;28;20402;-78
2024/03/04 12:29:26;;;;;;;13.98;8.15;;;;;;;9.72;73.02;100615.53;4981074;28;20055;-79
2024/03/04 12:31:55;;;;;;;13.60;8.43;;;;;;;9.62;72.54;100618.94;4983289;28;20089;-78
2024/03/04 12:34:22;;;;;;;12.60;9.00;;;;;;;9.70;72.19;100615.66;4984121;28;20476;-78
2024/03/04 12:36:50;;;;;;;18.00;8.77;;;;;;;9.70;71.69;100612.19;4992500;28;20141;-79
2024/03/04 12:39:19;;;;;;;11.55;8.68;;;;;;;9.70;72.04;100610.38;4992410;28;20046;-79
2024/03/04 12:41:46;;;;;;;14.30;8.90;;;;;;;9.69;72.20;100614.00;4995700;28;20058;-78
2024/03/04 12:44:18;;;;;;;13.07;8.70;;;;;;;9.65;72.15;100615.22;4990155;28;20081;-80
2024/03/04 12:46:46;;;;;;;12.30;8.73;;;;;;;9.65;72.46;100602.00;4996908;28;20088;-78
2024/03/04 12:49:16;;;;;;;10.98;9.00;;;;;;;9.46;72.71;100615.91;4992715;28;20050;-79
2024/03/04 12:51:44;;;;;;;11.77;8.25;;;;;;;9.52;72.92;100614.56;4991808;28;20082;-79
2024/03/04 12:54:21;;;;;;;10.75;8.90;;;;;;;9.28;73.37;100612.13;4984647;28;20051;-78
2024/03/04 12:56:48;;;;;;;14.48;8.90;;;;;;;9.36;73.53;100618.47;4989877;28;20096;-79
2024/03/04 12:59:15;;;;;;;13.45;8.90;;;;;;;9.33;73.76;100616.09;4994631;28;20043;-79
2024/03/04 13:01:41;;;;;;;14.10;8.90;;;;;;;9.27;73.49;100606.03;4999184;28;20084;-80
2024/03/04 13:04:08;;;;;;;13.55;9.18;;;;;;;9.41;73.34;100607.53;4999590;28;20461;-79
2024/03/04 13:06:36;;;;;;;13.13;9.43;;;;;;;9.48;73.28;100603.41;5000196;28;20054;-79
2024/03/04 13:09:03;;;;;;;10.05;8.00;;;;;;;9.59;72.50;100611.25;4999674;28;20088;-80